Pickle Lake, Ontario

Past 24 Hour Conditions

Date / Time
(EST)
Conditions Temp
(°F)
Humidity
(%)
Dew Point
(°F)
Wind
(mph)
Pressure
(inches)
Vis
(mi)
Wind Chill
23 November 2014
19:00 N/A 17 95 16 ENE 11 29.6 N/A 4
18:00 N/A 17 95 16 E 9 gust 18 29.6 N/A 6
17:00 N/A 17 95 16 E 9 29.6 N/A 6
16:00 N/A 17 96 16 ENE 8 29.6 N/A 6
15:00 N/A 16 96 15 ENE 10 29.6 N/A 4
14:00 N/A 17 91 15 ENE 11 29.6 N/A 5
13:00 N/A 17 91 15 E 9 gust 18 29.6 N/A 6
12:00 N/A 17 92 15 ESE 11 29.6 N/A 5
11:00 N/A 17 91 15 E 11 29.6 N/A 4
10:00 N/A 17 91 14 E 9 29.6 N/A 5
9:00 N/A 17 92 15 E 8 29.6 N/A 7
8:00 N/A 17 92 15 E 9 gust 18 29.6 N/A 6
7:00 N/A 17 92 16 E 9 29.6 N/A 6
6:00 N/A 18   93 16 E 8 29.6 N/A 8
5:00 N/A 17 93 16 E 10 29.6 N/A 6
4:00 N/A 17 94 16 E 7 29.6 N/A 8
3:00 N/A 17 93 15 E 8 29.6 N/A 7
2:00 N/A 16 93 15 ESE 10 29.7 N/A 5
1:00 N/A 16 92 14 ESE 8 29.7 N/A 6
00:00 N/A 15   92 14 E 9 29.7 N/A 4
22 November 2014
23:00 N/A 16 90 14 ENE 5 29.7 N/A 9
22:00 N/A 16 90 14 ESE 8 29.7 N/A 5
21:00 N/A 16 89 13 E 7 29.7 N/A 6
20:00 N/A 16 87 13 E 6 29.7 N/A 8
19:00 N/A 17 88 14 ENE 7 29.7 N/A 7
N/A Not available
↑ Highest temperature
↓ Lowest temperature
* Value not significant.

If you require additional historical weather information, please visit Climate Data Online.

Date modified: